Time;durP1;ratioP1;P1;durP2;ratioP2;P2;SDS_P1;SDS_P2;PMS_P1;PMS_P2;Temp;Humidity;BMP_temperature;BMP_pressure;BME280_temperature;BME280_humidity;BME280_pressure;Samples;Min_cycle;Max_cycle;Signal;HPM_P1;HPM_P2
2022/10/12 00:00:06;;;;;;;;;;;19.30;68.70;;;;;;4417317;32;20086;-78
2022/10/12 00:02:32;;;;;;;;;;;19.20;69.50;;;;;;4431048;32;20181;-78
2022/10/12 00:04:58;;;;;;;;;;;19.20;68.60;;;;;;4431163;32;19979;-78
2022/10/12 00:07:23;;;;;;;;;;;19.20;68.60;;;;;;4430416;32;19982;-78
2022/10/12 00:09:49;;;;;;;;;;;19.20;68.60;;;;;;4431019;32;20092;-78
2022/10/12 00:12:15;;;;;;;;;;;19.20;68.60;;;;;;4430837;32;20052;-78
2022/10/12 00:14:41;;;;;;;;;;;19.20;68.60;;;;;;4431070;32;20302;-78
2022/10/12 00:17:07;;;;;;;;;;;19.20;68.70;;;;;;4431111;32;20433;-77
2022/10/12 00:19:33;;;;;;;;;;;19.20;68.70;;;;;;4430789;32;19971;-78
2022/10/12 00:21:59;;;;;;;;;;;19.10;68.60;;;;;;4430679;32;19970;-78
2022/10/12 00:24:24;;;;;;;;;;;19.10;68.50;;;;;;4430964;32;20061;-78
2022/10/12 00:26:50;;;;;;;;;;;19.10;68.60;;;;;;4416881;32;19971;-78
2022/10/12 00:29:16;;;;;;;;;;;19.10;68.50;;;;;;4430972;32;20026;-78
2022/10/12 00:31:41;;;;;;;;;;;19.10;68.60;;;;;;4430731;32;20049;-77
2022/10/12 00:34:08;;;;;;;;;;;19.10;68.60;;;;;;4430673;32;20185;-78
2022/10/12 00:36:34;;;;;;;;;;;19.10;68.60;;;;;;4430851;32;19963;-77
2022/10/12 00:39:01;;;;;;;;;;;19.10;68.60;;;;;;4416722;32;20061;-77
2022/10/12 00:41:28;;;;;;;;;;;19.10;68.60;;;;;;4430681;32;19974;-78
2022/10/12 00:43:54;;;;;;;;;;;19.10;68.50;;;;;;4430478;32;19989;-78
2022/10/12 00:46:19;;;;;;;;;;;19.10;68.60;;;;;;4430795;32;19979;-78
2022/10/12 00:48:47;;;;;;;;;;;19.10;68.50;;;;;;4430295;32;20089;-78
2022/10/12 00:51:13;;;;;;;;;;;19.00;68.50;;;;;;4430459;32;19985;-78
2022/10/12 00:53:41;;;;;;;;;;;19.00;68.50;;;;;;4430407;32;20106;-78
2022/10/12 00:56:11;;;;;;;;;;;19.00;68.50;;;;;;4430386;32;20551;-78
2022/10/12 00:58:37;;;;;;;;;;;19.00;68.50;;;;;;4430589;32;20025;-78
2022/10/12 01:01:03;;;;;;;;;;;19.00;68.40;;;;;;4430498;32;19983;-78
2022/10/12 01:03:29;;;;;;;;;;;19.00;68.40;;;;;;4430057;32;19991;-78
2022/10/12 01:05:55;;;;;;;;;;;19.00;68.50;;;;;;4430281;32;19970;-78
2022/10/12 01:08:21;;;;;;;;;;;19.00;68.40;;;;;;4430137;32;20033;-78
2022/10/12 01:10:47;;;;;;;;;;;19.00;68.40;;;;;;4430158;32;20002;-78
2022/10/12 01:13:13;;;;;;;;;;;19.00;68.40;;;;;;4429858;32;19967;-78
2022/10/12 01:16:00;;;;;;;;;;;19.00;68.40;;;;;;4430556;32;19987;-78
2022/10/12 01:18:25;;;;;;;;;;;19.00;68.40;;;;;;4429131;32;19978;-78
2022/10/12 01:20:54;;;;;;;;;;;18.90;68.30;;;;;;4430247;32;19959;-78
2022/10/12 01:23:30;;;;;;;;;;;19.00;68.40;;;;;;4416094;32;20038;-78
2022/10/12 01:26:14;;;;;;;;;;;18.90;68.30;;;;;;4436662;32;19987;-78
2022/10/12 01:28:40;;;;;;;;;;;19.00;68.40;;;;;;4425187;32;20282;-77
2022/10/12 01:31:21;;;;;;;;;;;18.90;68.30;;;;;;4430302;32;20105;-78
2022/10/12 01:33:53;;;;;;;;;;;18.90;68.30;;;;;;4429938;32;19991;-78
2022/10/12 01:36:42;;;;;;;;;;;18.90;68.30;;;;;;4430287;32;20519;-78
2022/10/12 01:39:14;;;;;;;;;;;18.90;68.30;;;;;;4425534;32;20021;-77
2022/10/12 01:41:43;;;;;;;;;;;18.90;68.30;;;;;;4434221;32;20335;-77
2022/10/12 01:44:09;;;;;;;;;;;18.90;68.30;;;;;;4431381;32;20333;-77
2022/10/12 01:46:38;;;;;;;;;;;18.80;68.20;;;;;;4430025;32;20407;-78
2022/10/12 01:49:04;;;;;;;;;;;18.80;68.20;;;;;;4429684;32;19982;-77
2022/10/12 01:51:34;;;;;;;;;;;18.90;68.30;;;;;;4430065;32;20301;-77
2022/10/12 01:54:18;;;;;;;;;;;18.80;68.20;;;;;;4429761;32;19979;-77
2022/10/12 01:56:50;;;;;;;;;;;18.80;68.20;;;;;;4425368;32;20081;-78
2022/10/12 01:59:25;;;;;;;;;;;18.80;68.20;;;;;;4429891;32;19971;-77
2022/10/12 02:01:56;;;;;;;;;;;18.80;68.20;;;;;;4429585;32;19983;-77
2022/10/12 02:04:29;;;;;;;;;;;18.80;68.20;;;;;;4416011;32;19974;-77
2022/10/12 02:07:15;;;;;;;;;;;18.80;68.10;;;;;;4429838;32;20037;-70
2022/10/12 02:09:41;;;;;;;;;;;18.80;68.20;;;;;;4429750;32;19986;-71
2022/10/12 02:12:09;;;;;;;;;;;18.80;68.20;;;;;;4429953;32;19979;-70
2022/10/12 02:14:39;;;;;;;;;;;18.80;68.10;;;;;;4430130;32;20518;-70
2022/10/12 02:17:08;;;;;;;;;;;18.80;68.10;;;;;;4430127;32;19975;-70
2022/10/12 02:19:36;;;;;;;;;;;18.80;68.10;;;;;;4429933;32;19983;-70
2022/10/12 02:22:03;;;;;;;;;;;18.80;68.10;;;;;;4416147;32;19971;-70
2022/10/12 02:24:30;;;;;;;;;;;18.70;68.10;;;;;;4430096;32;19986;-70
2022/10/12 02:26:56;;;;;;;;;;;18.70;68.10;;;;;;4429739;32;19987;-70
2022/10/12 02:29:25;;;;;;;;;;;18.70;68.10;;;;;;4430467;32;19986;-70
2022/10/12 02:32:10;;;;;;;;;;;18.70;68.10;;;;;;4432834;32;20105;-70
2022/10/12 02:34:41;;;;;;;;;;;18.70;68.10;;;;;;4427663;32;19975;-70
2022/10/12 02:37:12;;;;;;;;;;;18.70;68.10;;;;;;4433181;32;19990;-70
2022/10/12 02:39:49;;;;;;;;;;;18.70;68.10;;;;;;4432802;32;20021;-70
2022/10/12 02:42:18;;;;;;;;;;;18.70;68.00;;;;;;4432956;32;20109;-70
2022/10/12 02:44:44;;;;;;;;;;;18.70;68.00;;;;;;4432739;32;19992;-70
2022/10/12 02:47:11;;;;;;;;;;;18.60;68.00;;;;;;4432672;32;19985;-70
2022/10/12 02:49:38;;;;;;;;;;;18.60;68.10;;;;;;4432857;32;20041;-70
2022/10/12 02:52:05;;;;;;;;;;;18.70;68.10;;;;;;4432664;32;19986;-70
2022/10/12 02:54:31;;;;;;;;;;;18.70;68.00;;;;;;4432512;32;19986;-71
2022/10/12 02:56:56;;;;;;;;;;;18.70;68.00;;;;;;4432608;32;19963;-70
2022/10/12 02:59:22;;;;;;;;;;;18.60;68.00;;;;;;4432448;32;19974;-70
2022/10/12 03:01:48;;;;;;;;;;;18.70;68.00;;;;;;4432403;32;20602;-70
2022/10/12 03:04:13;;;;;;;;;;;18.60;67.90;;;;;;4432525;32;19959;-70
2022/10/12 03:06:41;;;;;;;;;;;18.60;67.90;;;;;;4432167;32;19983;-70
2022/10/12 03:09:07;;;;;;;;;;;18.60;68.00;;;;;;4432442;32;19993;-70
2022/10/12 03:11:32;;;;;;;;;;;18.60;68.00;;;;;;4432576;32;20030;-70
2022/10/12 03:13:58;;;;;;;;;;;18.60;68.00;;;;;;4432169;32;20313;-70
2022/10/12 03:16:24;;;;;;;;;;;18.60;68.00;;;;;;4432292;32;19975;-70
2022/10/12 03:18:51;;;;;;;;;;;18.60;68.00;;;;;;4432128;32;19979;-70
2022/10/12 03:21:16;;;;;;;;;;;18.50;67.90;;;;;;4432231;32;19977;-70
2022/10/12 03:23:42;;;;;;;;;;;18.60;68.00;;;;;;4432105;32;20097;-70
2022/10/12 03:26:08;;;;;;;;;;;18.60;68.00;;;;;;4432146;32;20316;-70
2022/10/12 03:28:34;;;;;;;;;;;18.60;68.00;;;;;;4432348;32;20088;-70
2022/10/12 03:31:00;;;;;;;;;;;18.60;67.90;;;;;;4432090;32;19967;-70
2022/10/12 03:33:25;;;;;;;;;;;18.50;67.90;;;;;;4431988;32;20369;-70
2022/10/12 03:35:51;;;;;;;;;;;18.50;67.90;;;;;;4431948;32;19978;-70
2022/10/12 03:38:17;;;;;;;;;;;18.50;67.90;;;;;;4431720;32;19998;-70
2022/10/12 03:40:43;;;;;;;;;;;18.50;67.90;;;;;;4431692;32;19985;-70
2022/10/12 03:43:09;;;;;;;;;;;18.50;67.90;;;;;;4432086;32;19991;-70
2022/10/12 03:45:35;;;;;;;;;;;18.50;67.90;;;;;;4431846;32;20361;-70
2022/10/12 03:48:01;;;;;;;;;;;18.50;67.90;;;;;;4431817;32;20413;-70
2022/10/12 03:50:27;;;;;;;;;;;18.50;67.90;;;;;;4431693;32;20065;-70
2022/10/12 03:52:52;;;;;;;;;;;18.50;67.80;;;;;;4431532;32;19979;-70
2022/10/12 03:55:18;;;;;;;;;;;18.50;67.90;;;;;;4431604;32;19997;-70
2022/10/12 03:57:44;;;;;;;;;;;18.50;67.90;;;;;;4431691;32;20371;-70
2022/10/12 04:00:10;;;;;;;;;;;18.50;67.80;;;;;;4431380;32;20097;-70
2022/10/12 04:02:36;;;;;;;;;;;18.50;67.80;;;;;;4431562;32;20405;-70
2022/10/12 04:05:02;;;;;;;;;;;18.50;67.80;;;;;;4431571;32;20057;-70
2022/10/12 04:07:28;;;;;;;;;;;18.50;67.90;;;;;;4431522;32;19991;-70
2022/10/12 04:09:53;;;;;;;;;;;18.40;67.80;;;;;;4431501;32;20101;-70
2022/10/12 04:12:19;;;;;;;;;;;18.40;67.90;;;;;;4431345;32;19978;-70
2022/10/12 04:14:45;;;;;;;;;;;18.40;67.80;;;;;;4431501;32;19978;-69
2022/10/12 04:17:10;;;;;;;;;;;18.40;67.80;;;;;;4417369;32;19979;-70
2022/10/12 04:19:37;;;;;;;;;;;18.40;67.80;;;;;;4417343;32;19978;-70
2022/10/12 04:22:02;;;;;;;;;;;18.40;67.80;;;;;;4431541;32;19964;-70
2022/10/12 04:24:28;;;;;;;;;;;18.40;67.70;;;;;;4431054;32;19971;-70
2022/10/12 04:26:54;;;;;;;;;;;18.40;67.70;;;;;;4431034;32;20057;-70
2022/10/12 04:29:21;;;;;;;;;;;18.40;67.80;;;;;;4431251;32;20025;-70
2022/10/12 04:31:46;;;;;;;;;;;18.40;67.70;;;;;;4431206;32;20101;-70
2022/10/12 04:34:12;;;;;;;;;;;18.30;67.70;;;;;;4431444;32;19981;-70
2022/10/12 04:36:38;;;;;;;;;;;18.40;67.70;;;;;;4431391;32;20054;-70
2022/10/12 04:39:04;;;;;;;;;;;18.30;67.70;;;;;;4430944;32;19971;-70
2022/10/12 04:41:29;;;;;;;;;;;18.30;67.70;;;;;;4417062;32;20332;-70
2022/10/12 04:43:55;;;;;;;;;;;18.30;67.70;;;;;;4431000;32;19975;-70
2022/10/12 04:46:21;;;;;;;;;;;18.30;67.70;;;;;;4430760;32;20189;-70
2022/10/12 04:48:46;;;;;;;;;;;18.30;67.80;;;;;;4430965;32;19978;-70
2022/10/12 04:51:12;;;;;;;;;;;18.30;67.70;;;;;;4430995;32;20097;-70
2022/10/12 04:53:38;;;;;;;;;;;18.30;67.80;;;;;;4430420;32;20483;-70
2022/10/12 04:56:04;;;;;;;;;;;18.30;67.70;;;;;;4431197;32;20045;-70
2022/10/12 04:58:30;;;;;;;;;;;18.30;67.70;;;;;;4430904;32;20061;-70
2022/10/12 05:00:56;;;;;;;;;;;18.30;67.80;;;;;;4430825;32;20108;-70
2022/10/12 05:03:23;;;;;;;;;;;18.30;67.70;;;;;;4430957;32;19993;-70
2022/10/12 05:05:49;;;;;;;;;;;18.20;67.70;;;;;;4430809;32;19979;-70
2022/10/12 05:08:15;;;;;;;;;;;18.30;67.70;;;;;;4417027;32;20061;-72
2022/10/12 05:10:41;;;;;;;;;;;18.30;67.70;;;;;;4430673;32;20029;-72
2022/10/12 05:13:07;;;;;;;;;;;18.30;67.70;;;;;;4430739;32;19971;-72
2022/10/12 05:15:32;;;;;;;;;;;18.30;67.70;;;;;;4430900;32;20109;-73
2022/10/12 05:17:58;;;;;;;;;;;18.30;67.70;;;;;;4430651;32;20412;-72
2022/10/12 05:20:25;;;;;;;;;;;18.20;67.60;;;;;;4430737;32;19994;-72
2022/10/12 05:22:50;;;;;;;;;;;18.20;67.60;;;;;;4416676;32;19959;-72
2022/10/12 05:25:18;;;;;;;;;;;18.20;67.60;;;;;;4430603;32;19963;-72
2022/10/12 05:27:44;;;;;;;;;;;18.20;67.60;;;;;;4430551;32;20324;-72
2022/10/12 05:30:10;;;;;;;;;;;18.20;67.60;;;;;;4430475;32;20377;-72
2022/10/12 05:32:36;;;;;;;;;;;18.20;67.60;;;;;;4416436;32;20297;-72
2022/10/12 05:35:02;;;;;;;;;;;18.20;67.60;;;;;;4430486;32;20040;-72
2022/10/12 05:37:28;;;;;;;;;;;18.20;68.50;;;;;;4430224;32;20057;-72
2022/10/12 05:39:53;;;;;;;;;;;18.20;67.60;;;;;;4430402;32;19979;-73
2022/10/12 05:42:19;;;;;;;;;;;18.20;67.60;;;;;;4430636;32;19979;-72
2022/10/12 05:44:45;;;;;;;;;;;18.20;67.60;;;;;;4430098;32;20089;-72
2022/10/12 05:47:11;;;;;;;;;;;18.20;67.60;;;;;;4430276;32;19982;-72
2022/10/12 05:49:36;;;;;;;;;;;18.20;67.60;;;;;;4416455;32;19981;-72
2022/10/12 05:52:02;;;;;;;;;;;18.10;67.60;;;;;;4430083;32;19967;-73
2022/10/12 05:54:28;;;;;;;;;;;18.10;67.50;;;;;;4430284;32;20015;-72
2022/10/12 05:56:54;;;;;;;;;;;18.10;67.50;;;;;;4430248;32;20385;-72
2022/10/12 05:59:19;;;;;;;;;;;18.10;67.50;;;;;;4430242;32;19974;-73
2022/10/12 06:01:45;;;;;;;;;;;18.10;67.50;;;;;;4430296;32;19975;-72
2022/10/12 06:04:11;;;;;;;;;;;18.10;67.50;;;;;;4431798;32;20404;-72
2022/10/12 06:06:37;;;;;;;;;;;18.10;67.50;;;;;;4433468;32;19979;-72
2022/10/12 06:09:03;;;;;;;;;;;18.10;67.50;;;;;;4433345;32;19963;-72
2022/10/12 06:11:29;;;;;;;;;;;18.10;67.50;;;;;;4433650;32;20049;-73
2022/10/12 06:13:54;;;;;;;;;;;18.10;67.40;;;;;;4433456;32;20415;-73
2022/10/12 06:16:20;;;;;;;;;;;18.10;67.40;;;;;;4433318;32;19975;-73
2022/10/12 06:18:46;;;;;;;;;;;18.10;67.40;;;;;;4433232;32;19979;-73
2022/10/12 06:21:12;;;;;;;;;;;18.10;67.40;;;;;;4433387;32;19993;-72
2022/10/12 06:23:38;;;;;;;;;;;18.10;67.40;;;;;;4433374;32;20010;-73
2022/10/12 06:26:04;;;;;;;;;;;18.10;67.40;;;;;;4433116;32;20112;-72
2022/10/12 06:28:30;;;;;;;;;;;18.10;67.30;;;;;;4433331;32;19971;-72
2022/10/12 06:30:56;;;;;;;;;;;18.00;67.30;;;;;;4433362;32;20308;-73
2022/10/12 06:33:22;;;;;;;;;;;18.00;66.70;;;;;;4433364;32;20104;-74
2022/10/12 06:35:48;;;;;;;;;;;18.00;65.10;;;;;;4432954;32;20003;-74
2022/10/12 06:38:14;;;;;;;;;;;18.00;66.10;;;;;;4432874;32;20001;-73
2022/10/12 06:40:40;;;;;;;;;;;18.00;65.60;;;;;;4431662;32;20046;-74
2022/10/12 06:43:05;;;;;;;;;;;18.00;66.20;;;;;;4432562;32;19963;-74
2022/10/12 06:45:31;;;;;;;;;;;18.00;66.40;;;;;;4432593;32;19971;-74
2022/10/12 06:47:57;;;;;;;;;;;18.00;66.70;;;;;;4432589;32;19978;-73
2022/10/12 06:50:23;;;;;;;;;;;18.00;66.80;;;;;;4432951;32;20117;-73
2022/10/12 06:52:49;;;;;;;;;;;18.00;66.70;;;;;;4432707;32;20294;-74
2022/10/12 06:55:15;;;;;;;;;;;18.00;66.80;;;;;;4432728;32;19981;-73
2022/10/12 06:57:40;;;;;;;;;;;18.00;66.80;;;;;;4432664;32;19979;-74
2022/10/12 07:00:07;;;;;;;;;;;17.90;66.90;;;;;;4432637;32;19959;-71
2022/10/12 07:02:33;;;;;;;;;;;18.00;66.80;;;;;;4432499;32;19986;-74
2022/10/12 07:04:58;;;;;;;;;;;18.00;67.00;;;;;;4432588;32;20054;-73
2022/10/12 07:07:24;;;;;;;;;;;17.90;66.90;;;;;;4432557;32;20153;-73
2022/10/12 07:09:50;;;;;;;;;;;18.00;67.00;;;;;;4432693;32;19971;-73
2022/10/12 07:12:16;;;;;;;;;;;17.90;67.00;;;;;;4432212;32;19987;-74
2022/10/12 07:14:42;;;;;;;;;;;17.90;67.10;;;;;;4432242;32;19989;-73
2022/10/12 07:17:08;;;;;;;;;;;17.90;67.10;;;;;;4431737;32;19971;-72
2022/10/12 07:19:33;;;;;;;;;;;18.00;67.30;;;;;;4432242;32;20355;-73
2022/10/12 07:22:00;;;;;;;;;;;17.90;67.50;;;;;;4432177;32;19975;-72
2022/10/12 07:24:34;;;;;;;;;;;18.00;67.70;;;;;;4432117;32;19974;-73
2022/10/12 07:27:00;;;;;;;;;;;17.90;67.60;;;;;;4432161;32;19978;-75
2022/10/12 07:29:25;;;;;;;;;;;18.00;67.90;;;;;;4432168;32;20033;-74
2022/10/12 07:31:51;;;;;;;;;;;18.00;67.90;;;;;;4432337;32;19979;-75
2022/10/12 07:34:17;;;;;;;;;;;18.00;68.00;;;;;;4432387;32;20369;-75
2022/10/12 07:36:43;;;;;;;;;;;18.00;68.80;;;;;;4432043;32;19979;-75
2022/10/12 07:39:09;;;;;;;;;;;18.00;67.90;;;;;;4432043;32;20176;-75
2022/10/12 07:41:35;;;;;;;;;;;18.00;67.90;;;;;;4432035;32;20301;-76
2022/10/12 07:44:00;;;;;;;;;;;18.00;67.90;;;;;;4431579;32;19963;-75
2022/10/12 07:46:26;;;;;;;;;;;18.00;67.90;;;;;;4418003;32;19971;-74
2022/10/12 07:48:52;;;;;;;;;;;18.00;67.90;;;;;;4432003;32;19963;-75
2022/10/12 07:51:18;;;;;;;;;;;18.00;68.00;;;;;;4431770;32;20030;-75
2022/10/12 07:53:44;;;;;;;;;;;18.00;68.00;;;;;;4431842;32;19982;-75
2022/10/12 07:56:14;;;;;;;;;;;18.00;68.00;;;;;;4417987;32;19998;-75
2022/10/12 07:58:40;;;;;;;;;;;18.10;68.00;;;;;;4431620;32;20108;-75
2022/10/12 08:01:06;;;;;;;;;;;18.10;68.20;;;;;;4431930;32;19986;-74
2022/10/12 08:03:32;;;;;;;;;;;18.10;68.20;;;;;;4431581;32;19982;-74
2022/10/12 08:05:58;;;;;;;;;;;18.10;68.10;;;;;;4431676;32;20388;-75
2022/10/12 08:08:23;;;;;;;;;;;18.10;68.20;;;;;;4417535;32;19986;-76
2022/10/12 08:10:49;;;;;;;;;;;18.10;68.20;;;;;;4431264;32;20053;-75
2022/10/12 08:13:15;;;;;;;;;;;18.10;68.30;;;;;;4430892;32;20032;-73
2022/10/12 08:15:46;;;;;;;;;;;18.10;68.20;;;;;;4431678;32;19973;-71
2022/10/12 08:18:12;;;;;;;;;;;18.10;68.30;;;;;;4431494;32;19979;-73
2022/10/12 08:20:38;;;;;;;;;;;18.10;68.20;;;;;;4431582;32;20013;-67
2022/10/12 08:23:04;;;;;;;;;;;18.10;69.10;;;;;;4431248;32;19990;-74
2022/10/12 08:25:30;;;;;;;;;;;18.20;68.30;;;;;;4431279;32;19990;-73
2022/10/12 08:27:57;;;;;;;;;;;18.20;68.30;;;;;;4430716;32;20025;-74
2022/10/12 08:30:25;;;;;;;;;;;18.20;68.20;;;;;;4417470;32;20061;-74
2022/10/12 08:32:52;;;;;;;;;;;18.20;67.80;;;;;;4430934;32;20490;-74
2022/10/12 08:35:17;;;;;;;;;;;18.20;67.80;;;;;;4431151;32;19979;-74
2022/10/12 08:37:43;;;;;;;;;;;18.20;67.70;;;;;;4430871;32;19967;-73
2022/10/12 08:40:14;;;;;;;;;;;18.20;67.40;;;;;;4431210;32;20009;-73
2022/10/12 08:42:43;;;;;;;;;;;18.30;67.40;;;;;;4431261;32;19979;-73
2022/10/12 08:47:42;;;;;;;;;;;18.30;67.40;;;;;;4588656;31;20022;-65
2022/10/12 08:50:16;;;;;;;;;;;18.30;67.10;;;;;;4576334;31;19996;-65
2022/10/12 08:52:47;;;;;;;;;;;18.30;67.10;;;;;;4576839;31;20038;-65
2022/10/12 08:55:27;;;;;;;;;;;18.30;67.10;;;;;;4593348;31;20031;-66
2022/10/12 08:57:53;;;;;;;;;;;18.30;67.20;;;;;;4574831;31;20075;-68
2022/10/12 09:00:18;;;;;;;;;;;18.20;67.10;;;;;;4575282;31;20034;-67
2022/10/12 09:02:49;;;;;;;;;;;18.20;67.00;;;;;;4590412;31;20389;-67
2022/10/12 09:05:22;;;;;;;;;;;18.20;67.10;;;;;;4590713;31;20019;-66
2022/10/12 09:07:55;;;;;;;;;;;18.20;67.30;;;;;;4563393;31;20044;-67
2022/10/12 09:10:40;;;;;;;;;;;18.20;67.30;;;;;;4587188;31;20027;-66
2022/10/12 09:13:12;;;;;;;;;;;18.20;67.40;;;;;;4590987;31;20031;-66
2022/10/12 09:15:47;;;;;;;;;;;18.20;67.40;;;;;;4574969;31;19995;-67
2022/10/12 09:18:15;;;;;;;;;;;18.20;67.50;;;;;;4575551;31;20071;-67
2022/10/12 09:20:48;;;;;;;;;;;18.20;67.50;;;;;;4589933;31;20494;-64
2022/10/12 09:23:14;;;;;;;;;;;18.30;67.70;;;;;;4589125;31;20046;-67
2022/10/12 09:25:41;;;;;;;;;;;18.20;67.60;;;;;;4592288;31;20028;-67
2022/10/12 09:28:19;;;;;;;;;;;18.20;67.60;;;;;;4575195;31;20881;-68
2022/10/12 09:30:54;;;;;;;;;;;18.30;67.70;;;;;;4587383;31;20082;-66
2022/10/12 09:33:23;;;;;;;;;;;18.20;67.70;;;;;;4589259;31;20047;-65
2022/10/12 09:35:51;;;;;;;;;;;18.20;67.70;;;;;;4589109;31;20459;-66
2022/10/12 09:38:17;;;;;;;;;;;18.20;67.70;;;;;;4590076;31;20059;-65
2022/10/12 09:40:43;;;;;;;;;;;18.20;67.80;;;;;;4571684;31;20023;-64
2022/10/12 09:43:09;;;;;;;;;;;18.20;67.70;;;;;;4576345;31;20038;-66
2022/10/12 09:45:36;;;;;;;;;;;18.20;67.80;;;;;;4590123;31;19986;-65
2022/10/12 09:48:09;;;;;;;;;;;18.20;67.80;;;;;;4562550;31;20024;-65
2022/10/12 09:50:38;;;;;;;;;;;18.20;67.80;;;;;;4588606;31;20023;-65
2022/10/12 09:53:10;;;;;;;;;;;18.30;67.80;;;;;;4588938;31;20039;-65
2022/10/12 09:55:36;;;;;;;;;;;18.30;67.50;;;;;;4590407;31;20043;-64
2022/10/12 09:58:02;;;;;;;;;;;18.30;67.00;;;;;;4569169;31;20022;-66
2022/10/12 10:00:29;;;;;;;;;;;18.30;67.00;;;;;;4559381;31;20015;-66
2022/10/12 10:02:56;;;;;;;;;;;18.30;66.90;;;;;;4578525;31;20486;-66
2022/10/12 10:05:25;;;;;;;;;;;18.30;66.60;;;;;;4562212;31;20063;-66
2022/10/12 10:07:51;;;;;;;;;;;18.30;66.60;;;;;;4578958;31;20110;-66
2022/10/12 10:10:23;;;;;;;;;;;18.30;66.30;;;;;;4562949;31;20023;-67
2022/10/12 10:12:49;;;;;;;;;;;18.40;66.20;;;;;;4561609;31;20408;-66
2022/10/12 10:15:19;;;;;;;;;;;18.40;66.10;;;;;;4576745;31;20863;-65
2022/10/12 10:17:47;;;;;;;;;;;18.40;66.00;;;;;;4573370;31;20043;-65
2022/10/12 10:20:21;;;;;;;;;;;18.40;65.80;;;;;;4560633;31;20080;-65
2022/10/12 10:22:47;;;;;;;;;;;18.40;65.50;;;;;;4572800;31;20042;-64
2022/10/12 10:25:18;;;;;;;;;;;18.40;65.60;;;;;;4561491;31;20027;-64
2022/10/12 10:27:43;;;;;;;;;;;18.40;65.40;;;;;;4546322;31;20137;-63
2022/10/12 10:30:20;;;;;;;;;;;18.40;65.00;;;;;;4549915;31;20041;-64
2022/10/12 10:33:05;;;;;;;;;;;18.50;65.30;;;;;;4549354;31;19996;-64
2022/10/12 10:36:00;;;;;;;;;;;18.50;65.00;;;;;;4562742;31;20084;-65
2022/10/12 10:38:57;;;;;;;;;;;18.50;64.70;;;;;;4563033;31;20099;-64
2022/10/12 10:41:42;;;;;;;;;;;18.50;64.70;;;;;;4564823;31;20027;-64
2022/10/12 10:44:34;;;;;;;;;;;18.50;65.00;;;;;;4549902;31;20050;-65
2022/10/12 10:47:19;;;;;;;;;;;18.50;64.80;;;;;;4551359;31;20034;-64
2022/10/12 10:49:50;;;;;;;;;;;18.50;64.80;;;;;;4563450;31;19990;-64
2022/10/12 10:52:24;;;;;;;;;;;18.50;64.70;;;;;;4536142;31;20219;-64
2022/10/12 10:55:08;;;;;;;;;;;18.50;64.50;;;;;;4564808;31;19984;-64
2022/10/12 10:57:35;;;;;;;;;;;18.50;64.50;;;;;;4548308;31;20043;-65
2022/10/12 11:00:04;;;;;;;;;;;18.50;64.50;;;;;;4549960;31;20112;-64
2022/10/12 11:02:36;;;;;;;;;;;18.50;64.40;;;;;;4548735;31;20027;-64
2022/10/12 11:05:05;;;;;;;;;;;18.50;64.60;;;;;;4549340;31;20034;-64
2022/10/12 11:07:45;;;;;;;;;;;18.50;64.50;;;;;;4564313;31;20108;-64
2022/10/12 11:10:30;;;;;;;;;;;18.50;65.00;;;;;;4547282;31;20028;-64
2022/10/12 11:13:00;;;;;;;;;;;18.50;64.60;;;;;;4549944;31;20158;-65
2022/10/12 11:15:36;;;;;;;;;;;18.50;64.50;;;;;;4548921;31;20042;-64
2022/10/12 11:18:05;;;;;;;;;;;18.50;64.30;;;;;;4548759;31;20046;-64
2022/10/12 11:20:50;;;;;;;;;;;18.50;64.10;;;;;;4548999;31;20040;-65
2022/10/12 11:23:19;;;;;;;;;;;18.50;63.80;;;;;;4561047;31;20028;-70
2022/10/12 11:26:03;;;;;;;;;;;18.50;63.80;;;;;;4548796;31;20036;-65
2022/10/12 11:28:31;;;;;;;;;;;18.50;63.60;;;;;;4561857;31;20004;-64
2022/10/12 11:30:57;;;;;;;;;;;18.50;63.80;;;;;;4565068;31;20038;-64
2022/10/12 11:33:43;;;;;;;;;;;18.50;63.40;;;;;;4578362;31;20117;-64
2022/10/12 11:36:12;;;;;;;;;;;18.50;63.30;;;;;;4574290;31;20058;-65
2022/10/12 11:38:43;;;;;;;;;;;18.50;63.60;;;;;;4563930;31;20051;-67
2022/10/12 11:41:11;;;;;;;;;;;18.50;63.40;;;;;;4539517;31;20028;-67
2022/10/12 11:43:45;;;;;;;;;;;18.60;63.30;;;;;;4562449;31;20059;-65
2022/10/12 11:46:13;;;;;;;;;;;18.60;62.50;;;;;;4564003;31;20031;-64
2022/10/12 11:48:42;;;;;;;;;;;18.60;62.90;;;;;;4561905;31;20083;-65
2022/10/12 11:51:09;;;;;;;;;;;18.60;62.90;;;;;;4578316;31;20165;-64
2022/10/12 11:53:38;;;;;;;;;;;18.60;62.80;;;;;;4539378;31;20562;-65
2022/10/12 11:56:04;;;;;;;;;;;18.60;62.60;;;;;;4563320;31;20051;-65
2022/10/12 11:58:31;;;;;;;;;;;18.60;63.10;;;;;;4577202;31;20122;-65
2022/10/12 12:01:13;;;;;;;;;;;18.60;62.60;;;;;;4563515;31;20701;-65
2022/10/12 12:03:44;;;;;;;;;;;18.60;62.30;;;;;;4577669;31;20027;-64
2022/10/12 12:06:28;;;;;;;;;;;18.60;62.20;;;;;;4558786;31;20023;-64
2022/10/12 12:08:54;;;;;;;;;;;18.60;62.20;;;;;;4573969;31;20130;-63
2022/10/12 12:11:21;;;;;;;;;;;18.60;62.20;;;;;;4561384;31;20061;-64
2022/10/12 12:13:47;;;;;;;;;;;18.60;62.20;;;;;;4562900;31;20164;-64
2022/10/12 12:16:13;;;;;;;;;;;18.60;62.20;;;;;;4563724;31;19990;-63
2022/10/12 12:18:58;;;;;;;;;;;18.60;62.10;;;;;;4575757;31;20173;-63
2022/10/12 12:21:23;;;;;;;;;;;18.70;62.10;;;;;;4560873;31;20111;-65
2022/10/12 12:23:55;;;;;;;;;;;18.70;62.30;;;;;;4548232;31;20027;-64
2022/10/12 12:26:23;;;;;;;;;;;18.60;62.30;;;;;;4576689;31;20039;-64
2022/10/12 12:28:51;;;;;;;;;;;18.70;62.20;;;;;;4535019;31;19977;-65
2022/10/12 12:31:22;;;;;;;;;;;18.70;62.80;;;;;;4564875;31;20042;-64
2022/10/12 12:33:50;;;;;;;;;;;18.60;62.80;;;;;;4560409;31;20098;-63
2022/10/12 12:36:31;;;;;;;;;;;18.70;62.70;;;;;;4547801;31;20039;-64
2022/10/12 12:38:57;;;;;;;;;;;18.70;62.70;;;;;;4557479;31;20031;-64
2022/10/12 12:41:26;;;;;;;;;;;18.70;62.70;;;;;;4548318;31;20161;-63
2022/10/12 12:43:54;;;;;;;;;;;18.70;62.60;;;;;;4549496;31;20035;-64
2022/10/12 12:46:21;;;;;;;;;;;18.70;62.50;;;;;;4551906;31;20039;-62
2022/10/12 12:48:47;;;;;;;;;;;18.70;62.50;;;;;;4566214;31;20039;-63
2022/10/12 12:51:16;;;;;;;;;;;18.70;62.80;;;;;;4567247;31;20045;-64
2022/10/12 12:53:51;;;;;;;;;;;18.60;62.60;;;;;;4565020;31;20031;-63
2022/10/12 12:56:26;;;;;;;;;;;18.70;62.50;;;;;;4547669;31;20066;-63
2022/10/12 12:59:10;;;;;;;;;;;18.70;62.80;;;;;;4547283;31;20027;-63
2022/10/12 13:01:46;;;;;;;;;;;18.60;62.70;;;;;;4560282;31;20059;-64
2022/10/12 13:04:27;;;;;;;;;;;18.70;62.90;;;;;;4562647;31;20020;-63
2022/10/12 13:07:07;;;;;;;;;;;18.60;62.90;;;;;;4547616;31;20039;-64
2022/10/12 13:09:39;;;;;;;;;;;18.60;63.10;;;;;;4541813;31;20054;-64
2022/10/12 13:12:10;;;;;;;;;;;18.60;63.20;;;;;;4563596;31;19991;-64
2022/10/12 13:14:47;;;;;;;;;;;18.60;63.20;;;;;;4555328;31;20048;-64
2022/10/12 13:17:39;;;;;;;;;;;18.60;63.50;;;;;;4549091;31;20048;-63
2022/10/12 13:20:14;;;;;;;;;;;18.60;63.50;;;;;;4531179;31;20065;-64
2022/10/12 13:22:40;;;;;;;;;;;18.60;63.40;;;;;;4562020;31;20169;-64
2022/10/12 13:25:11;;;;;;;;;;;18.60;63.60;;;;;;4548951;31;20169;-64
2022/10/12 13:27:50;;;;;;;;;;;18.60;63.50;;;;;;4560759;31;20023;-64
2022/10/12 13:30:22;;;;;;;;;;;18.60;63.30;;;;;;4552691;31;20046;-64
2022/10/12 13:33:03;;;;;;;;;;;18.60;63.50;;;;;;4578104;31;20085;-64
2022/10/12 13:35:35;;;;;;;;;;;18.60;63.50;;;;;;4563321;31;20031;-64
2022/10/12 13:38:21;;;;;;;;;;;18.60;63.70;;;;;;4568612;31;20031;-65
2022/10/12 13:41:07;;;;;;;;;;;18.60;63.70;;;;;;4559920;31;20035;-64
2022/10/12 13:43:35;;;;;;;;;;;18.60;63.80;;;;;;4563673;31;20067;-64
2022/10/12 13:46:01;;;;;;;;;;;18.60;63.70;;;;;;4557150;31;19976;-63
2022/10/12 13:48:28;;;;;;;;;;;18.60;63.70;;;;;;4574958;31;20103;-64
2022/10/12 13:50:55;;;;;;;;;;;18.60;63.60;;;;;;4576968;31;20488;-64
2022/10/12 13:53:22;;;;;;;;;;;18.60;63.50;;;;;;4573422;31;20039;-64
2022/10/12 13:55:54;;;;;;;;;;;18.70;63.50;;;;;;4562784;31;20035;-63
2022/10/12 13:58:23;;;;;;;;;;;18.70;63.40;;;;;;4561480;31;20082;-63
2022/10/12 14:00:48;;;;;;;;;;;18.70;63.30;;;;;;4575463;31;20111;-63
2022/10/12 14:03:14;;;;;;;;;;;18.60;63.30;;;;;;4579914;31;19991;-63
2022/10/12 14:05:44;;;;;;;;;;;18.70;63.30;;;;;;4562018;31;20016;-63
2022/10/12 14:08:13;;;;;;;;;;;18.70;63.30;;;;;;4575534;31;20049;-63
2022/10/12 14:10:40;;;;;;;;;;;18.60;63.10;;;;;;4576089;31;20027;-63
2022/10/12 14:13:08;;;;;;;;;;;18.60;62.90;;;;;;4562682;31;21058;-63
2022/10/12 14:15:35;;;;;;;;;;;18.60;62.90;;;;;;4577084;31;19980;-63
2022/10/12 14:18:02;;;;;;;;;;;18.60;62.60;;;;;;4577053;31;20067;-63
2022/10/12 14:20:33;;;;;;;;;;;18.60;62.60;;;;;;4579037;31;20106;-63
2022/10/12 14:23:01;;;;;;;;;;;18.60;62.60;;;;;;4574495;31;20450;-64
2022/10/12 14:25:28;;;;;;;;;;;18.50;62.50;;;;;;4564116;31;20427;-64
2022/10/12 14:27:58;;;;;;;;;;;18.50;62.40;;;;;;4561864;31;20113;-63